createdAt,value
2022-12-01T00:01:13.235Z,95440.38
2022-12-01T00:03:40.175Z,95445.19
2022-12-01T00:06:11.519Z,95440.91
2022-12-01T00:08:38.617Z,95439.75
2022-12-01T00:11:08.400Z,95434.34
2022-12-01T00:13:36.809Z,95431.28
2022-12-01T00:16:17.282Z,95431.81
2022-12-01T00:18:44.365Z,95429.81
2022-12-01T00:21:18.872Z,95422.22
2022-12-01T00:23:49.800Z,95436.44
2022-12-01T00:26:17.797Z,95431.97
2022-12-01T00:28:44.727Z,95422.22
2022-12-01T00:31:12.896Z,95432.25
2022-12-01T00:33:40.075Z,95431.34
2022-12-01T00:36:07.553Z,95426.84
2022-12-01T00:38:34.362Z,95433.78
2022-12-01T00:41:01.381Z,95432.25
2022-12-01T00:43:28.059Z,95433.78
2022-12-01T00:45:56.366Z,95427.59
2022-12-01T00:48:23.179Z,95435.47
2022-12-01T00:50:52.523Z,95434.47
2022-12-01T00:53:19.247Z,95434.63
2022-12-01T00:55:46.019Z,95441.16
2022-12-01T00:58:12.695Z,95445.41
2022-12-01T01:00:39.269Z,95428.34
2022-12-01T01:03:08.964Z,95437.69
2022-12-01T01:05:39.618Z,95421.38
2022-12-01T01:08:08.140Z,95428.38
2022-12-01T01:10:38.565Z,95423.78
2022-12-01T01:13:05.359Z,95430.53
2022-12-01T01:15:31.956Z,95435.06
2022-12-01T01:17:58.496Z,95435.75
2022-12-01T01:20:25.476Z,95436.31
2022-12-01T01:22:52.012Z,95430.88
2022-12-01T01:25:18.603Z,95438.59
2022-12-01T01:27:45.243Z,95429.69
2022-12-01T01:30:12.416Z,95437.72
2022-12-01T01:32:39.076Z,95433.94
2022-12-01T01:35:06.196Z,95445.31
2022-12-01T01:37:32.849Z,95439.69
2022-12-01T01:39:59.388Z,95450.34
2022-12-01T01:42:26.005Z,95461.31
2022-12-01T01:44:55.471Z,95442.75
2022-12-01T01:47:34.913Z,95446.66
2022-12-01T01:50:09.190Z,95448.72
2022-12-01T01:52:38.839Z,95431.66
2022-12-01T01:55:06.134Z,95427.75
2022-12-01T01:57:34.951Z,95440.53
2022-12-01T02:00:10.922Z,95442.06
2022-12-01T02:02:40.786Z,95440.41
2022-12-01T02:05:12.359Z,95440.41
2022-12-01T02:07:40.106Z,95445.66
2022-12-01T02:10:13.322Z,95438.50
2022-12-01T02:13:01.791Z,95439.44
2022-12-01T02:15:54.018Z,95392.59
2022-12-01T02:18:33.561Z,95426.06
2022-12-01T02:21:00.228Z,95430.53
2022-12-01T02:23:44.027Z,95431.19
2022-12-01T02:26:22.705Z,95432.81
2022-12-01T02:29:07.837Z,95431.81
2022-12-01T02:31:51.435Z,95432.06
2022-12-01T02:34:29.629Z,95433.94
2022-12-01T02:37:05.737Z,95430.03
2022-12-01T02:39:42.417Z,95433.19
2022-12-01T02:42:39.788Z,95429.84
2022-12-01T02:45:13.427Z,95423.56
2022-12-01T02:47:42.537Z,95431.00
2022-12-01T02:50:11.342Z,95431.56
2022-12-01T02:52:40.036Z,95430.13
2022-12-01T02:55:07.261Z,95426.44
2022-12-01T02:57:33.810Z,95431.66
2022-12-01T03:00:01.191Z,95428.63
2022-12-01T03:02:44.071Z,95418.19
2022-12-01T03:05:26.317Z,95426.47
2022-12-01T03:08:05.787Z,95428.72
2022-12-01T03:11:07.597Z,95431.88
2022-12-01T03:13:41.314Z,95431.66
2022-12-01T03:16:11.789Z,95430.16
2022-12-01T03:18:53.846Z,95440.91
2022-12-01T03:21:40.495Z,95432.44
2022-12-01T03:24:29.481Z,95431.78
2022-12-01T03:27:00.086Z,95434.94
2022-12-01T03:29:36.447Z,95428.66
2022-12-01T03:32:15.881Z,95427.78
2022-12-01T03:34:57.390Z,95427.25
2022-12-01T03:37:33.571Z,95422.34
2022-12-01T03:40:03.149Z,95429.09
2022-12-01T03:42:37.358Z,95429.91
2022-12-01T03:45:17.550Z,95426.47
2022-12-01T03:47:45.002Z,95428.19
2022-12-01T03:50:14.054Z,95432.78
2022-12-01T03:52:49.647Z,95425.16
2022-12-01T03:55:21.986Z,95428.31
2022-12-01T03:57:52.050Z,95425.38
2022-12-01T04:00:19.263Z,95428.97
2022-12-01T04:02:46.196Z,95424.06
2022-12-01T04:05:13.379Z,95430.69
2022-12-01T04:07:40.511Z,95427.53
2022-12-01T04:10:08.150Z,95427.00
2022-12-01T04:12:34.678Z,95438.59
2022-12-01T04:15:06.169Z,95441.03
2022-12-01T04:17:32.730Z,95435.56
2022-12-01T04:19:59.532Z,95432.56
2022-12-01T04:22:26.837Z,95443.19
2022-12-01T04:24:54.044Z,95446.88
2022-12-01T04:27:20.898Z,95448.50
2022-12-01T04:29:47.917Z,95453.28
2022-12-01T04:32:14.981Z,95448.44
2022-12-01T04:34:41.494Z,95453.09
2022-12-01T04:37:09.978Z,95448.53
2022-12-01T04:39:36.681Z,95441.50
2022-12-01T04:42:03.284Z,95453.28
2022-12-01T04:44:34.530Z,95452.34
2022-12-01T04:47:02.149Z,95450.69
2022-12-01T04:49:29.139Z,95448.97
2022-12-01T04:51:55.669Z,95455.38
2022-12-01T04:54:22.343Z,95458.75
2022-12-01T04:56:49.325Z,95460.56
2022-12-01T04:59:16.368Z,95459.06
2022-12-01T05:01:43.125Z,95463.81
2022-12-01T05:04:13.445Z,95441.69
2022-12-01T05:06:40.395Z,95458.41
2022-12-01T05:09:07.501Z,95444.50
2022-12-01T05:11:35.248Z,95453.41
2022-12-01T05:14:02.050Z,95439.72
2022-12-01T05:16:34.557Z,95440.81
2022-12-01T05:19:22.152Z,95444.25
2022-12-01T05:21:50.499Z,95424.53
2022-12-01T05:24:17.867Z,95451.66
2022-12-01T05:26:45.045Z,95446.66
2022-12-01T05:29:12.437Z,95442.75
2022-12-01T05:31:39.940Z,95451.00
2022-12-01T05:34:07.562Z,95427.56
2022-12-01T05:36:34.115Z,95440.56
2022-12-01T05:39:00.786Z,95446.31
2022-12-01T05:41:27.464Z,95448.19
2022-12-01T05:43:54.223Z,95447.97
2022-12-01T05:46:20.856Z,95452.09
2022-12-01T05:48:47.525Z,95459.25
2022-12-01T05:51:16.687Z,95442.50
2022-12-01T05:53:44.140Z,95447.31
2022-12-01T05:56:11.305Z,95462.16
2022-12-01T05:58:37.957Z,95466.00
2022-12-01T06:01:04.954Z,95458.19
2022-12-01T06:03:31.653Z,95462.31
2022-12-01T06:05:58.189Z,95467.09
2022-12-01T06:08:24.835Z,95454.50
2022-12-01T06:10:51.390Z,95459.91
2022-12-01T06:13:17.911Z,95460.34
2022-12-01T06:15:44.559Z,95458.19
2022-12-01T06:18:11.309Z,95465.34
2022-12-01T06:20:37.850Z,95467.09
2022-12-01T06:23:04.444Z,95462.31
2022-12-01T06:25:31.018Z,95467.31
2022-12-01T06:27:58.523Z,95469.91
2022-12-01T06:30:25.859Z,95470.31
2022-12-01T06:32:52.614Z,95465.88
2022-12-01T06:35:19.268Z,95471.66
2022-12-01T06:37:45.874Z,95467.53
2022-12-01T06:40:13.026Z,95475.13
2022-12-01T06:42:39.515Z,95470.47
2022-12-01T06:45:06.501Z,95481.22
2022-12-01T06:47:33.042Z,95476.84
2022-12-01T06:49:59.993Z,95480.88
2022-12-01T06:52:26.493Z,95482.72
2022-12-01T06:54:53.016Z,95478.16
2022-12-01T06:57:19.896Z,95479.22
2022-12-01T06:59:47.121Z,95483.56
2022-12-01T07:02:14.401Z,95482.91
2022-12-01T07:04:40.945Z,95477.59
2022-12-01T07:07:07.555Z,95483.38
2022-12-01T07:09:34.532Z,95476.44
2022-12-01T07:12:01.041Z,95487.81
2022-12-01T07:14:27.983Z,95484.00
2022-12-01T07:16:54.930Z,95487.69
2022-12-01T07:19:21.600Z,95494.69
2022-12-01T07:21:48.109Z,95487.69
2022-12-01T07:24:14.828Z,95487.06
2022-12-01T07:26:42.407Z,95483.16
2022-12-01T07:29:09.828Z,95493.16
2022-12-01T07:31:38.647Z,95492.69
2022-12-01T07:34:05.897Z,95481.44
2022-12-01T07:36:32.513Z,95494.13
2022-12-01T07:38:59.114Z,95494.22
2022-12-01T07:41:25.688Z,95494.31
2022-12-01T07:43:52.235Z,95498.63
2022-12-01T07:46:23.722Z,95501.16
2022-12-01T07:48:51.836Z,95493.75
2022-12-01T07:51:19.468Z,95499.44
2022-12-01T07:53:47.774Z,95495.38
2022-12-01T07:56:14.321Z,95503.53
2022-12-01T07:58:41.450Z,95499.69
2022-12-01T08:01:14.018Z,95501.28
2022-12-01T08:03:41.266Z,95496.75
2022-12-01T08:06:09.127Z,95502.31
2022-12-01T08:08:38.136Z,95504.63
2022-12-01T08:11:10.137Z,95506.56
2022-12-01T08:13:36.715Z,95501.06
2022-12-01T08:16:08.191Z,95507.63
2022-12-01T08:18:35.896Z,95501.50
2022-12-01T08:21:03.091Z,95504.53
2022-12-01T08:23:30.069Z,95502.59
2022-12-01T08:26:00.793Z,95509.31
2022-12-01T08:28:27.431Z,95512.13
2022-12-01T08:30:54.098Z,95498.63
2022-12-01T08:33:20.716Z,95498.84
2022-12-01T08:35:47.197Z,95506.16
2022-12-01T08:38:13.764Z,95502.94
2022-12-01T08:40:40.339Z,95498.09
2022-12-01T08:43:07.220Z,95496.50
2022-12-01T08:45:33.935Z,95502.41
2022-12-01T08:48:00.516Z,95507.41
2022-12-01T08:50:28.136Z,95509.13
2022-12-01T08:52:55.010Z,95500.94
2022-12-01T08:55:22.253Z,95506.47
2022-12-01T08:57:48.925Z,95507.06
2022-12-01T09:00:16.315Z,95510.84
2022-12-01T09:02:42.924Z,95512.78
2022-12-01T09:05:09.705Z,95509.28
2022-12-01T09:07:36.431Z,95517.69
2022-12-01T09:10:03.199Z,95508.38
2022-12-01T09:12:29.890Z,95513.56
2022-12-01T09:14:56.794Z,95515.47
2022-12-01T09:17:23.759Z,95511.34
2022-12-01T09:19:50.539Z,95512.56
2022-12-01T09:22:17.407Z,95518.59
2022-12-01T09:24:44.067Z,95513.44
2022-12-01T09:27:10.803Z,95514.91
2022-12-01T09:29:37.534Z,95512.13
2022-12-01T09:32:04.061Z,95509.00
2022-12-01T09:34:30.668Z,95518.50
2022-12-01T09:36:58.681Z,95504.78
2022-12-01T09:39:25.845Z,95507.41
2022-12-01T09:42:06.158Z,95516.50
2022-12-01T09:44:57.152Z,95517.69
2022-12-01T09:47:37.337Z,95526.72
2022-12-01T09:50:11.949Z,95516.59
2022-12-01T09:52:41.406Z,95514.84
2022-12-01T09:55:14.385Z,95516.50
2022-12-01T09:57:42.651Z,95515.41
2022-12-01T10:00:27.209Z,95515.06
2022-12-01T10:03:09.762Z,95518.09
2022-12-01T10:06:10.414Z,95517.16
2022-12-01T10:08:36.570Z,95516.59
2022-12-01T10:11:16.464Z,95501.97
2022-12-01T10:13:43.915Z,95504.41
2022-12-01T10:16:18.823Z,95505.03
2022-12-01T10:19:03.559Z,95502.78
2022-12-01T10:21:54.933Z,95508.91
2022-12-01T10:24:46.474Z,95501.19
2022-12-01T10:27:37.705Z,95498.47
2022-12-01T10:30:15.637Z,95505.44
2022-12-01T10:32:50.252Z,95495.44
2022-12-01T10:35:18.543Z,95485.97
2022-12-01T10:37:46.298Z,95488.94
2022-12-01T10:40:15.436Z,95489.72
2022-12-01T10:42:50.305Z,95484.69
2022-12-01T10:45:23.122Z,95485.63
2022-12-01T10:48:17.754Z,95489.78
2022-12-01T10:50:47.862Z,95490.72
2022-12-01T10:53:23.107Z,95489.00
2022-12-01T10:55:56.470Z,95474.44
2022-12-01T10:58:23.256Z,95493.22
2022-12-01T11:01:03.576Z,95490.63
2022-12-01T11:03:33.011Z,95488.31
2022-12-01T11:06:04.500Z,95486.84
2022-12-01T11:08:39.071Z,95475.63
2022-12-01T11:11:06.567Z,95483.72
2022-12-01T11:13:36.594Z,95481.34
2022-12-01T11:16:06.280Z,95480.38
2022-12-01T11:18:39.097Z,95470.72
2022-12-01T11:21:16.859Z,95475.94
2022-12-01T11:23:49.073Z,95472.75
2022-12-01T11:26:20.858Z,95477.81
2022-12-01T11:29:21.796Z,95471.31
2022-12-01T11:31:51.438Z,95471.81
2022-12-01T11:34:21.590Z,95473.41
2022-12-01T11:36:53.384Z,95469.44
2022-12-01T11:39:38.365Z,95463.28
2022-12-01T11:42:22.753Z,95470.78
2022-12-01T11:45:24.630Z,95468.34
2022-12-01T11:48:01.613Z,95467.50
2022-12-01T11:50:31.998Z,95463.13
2022-12-01T11:52:59.061Z,95459.59
2022-12-01T11:55:28.245Z,95459.84
2022-12-01T11:57:59.198Z,95457.97
2022-12-01T12:00:29.257Z,95456.94
2022-12-01T12:03:14.023Z,95453.44
2022-12-01T12:06:38.417Z,95454.19
2022-12-01T12:08:53.691Z,95454.94
2022-12-01T12:11:35.727Z,95451.50
2022-12-01T12:14:26.329Z,95452.94
2022-12-01T12:17:18.089Z,95458.56
2022-12-01T12:20:08.589Z,95457.34
2022-12-01T12:22:58.477Z,95457.28
2022-12-01T12:25:44.333Z,95460.16
2022-12-01T12:28:27.531Z,95450.16
2022-12-01T12:31:31.947Z,95457.31
2022-12-01T12:34:03.121Z,95453.81
2022-12-01T12:36:42.348Z,95448.72
2022-12-01T12:39:22.430Z,95448.75
2022-12-01T12:41:54.893Z,95445.44
2022-12-01T12:44:42.740Z,95456.53
2022-12-01T12:47:33.868Z,95452.25
2022-12-01T12:50:19.678Z,95447.97
2022-12-01T12:52:51.824Z,95432.53
2022-12-01T12:55:33.412Z,95428.25
2022-12-01T12:58:23.177Z,95438.22
2022-12-01T13:01:03.587Z,95441.75
2022-12-01T13:03:57.552Z,95436.44
2022-12-01T13:06:34.558Z,95438.88
2022-12-01T13:09:27.030Z,95429.75
2022-12-01T13:12:02.802Z,95421.75
2022-12-01T13:15:01.557Z,95433.63
2022-12-01T13:17:35.507Z,95439.13
2022-12-01T13:20:02.089Z,95436.34
2022-12-01T13:22:35.976Z,95425.41
2022-12-01T13:25:04.159Z,95427.50
2022-12-01T13:27:40.127Z,95427.19
2022-12-01T13:30:19.219Z,95426.91
2022-12-01T13:32:47.049Z,95426.56
2022-12-01T13:35:19.314Z,95420.09
2022-12-01T13:37:45.955Z,95409.28
2022-12-01T13:40:20.570Z,95423.50
2022-12-01T13:42:55.912Z,95422.78
2022-12-01T13:45:22.949Z,95413.91
2022-12-01T13:47:52.877Z,95423.63
2022-12-01T13:50:44.196Z,95415.28
2022-12-01T13:53:19.816Z,95416.69
2022-12-01T13:55:59.107Z,95418.66
2022-12-01T13:58:42.301Z,95419.94
2022-12-01T14:01:41.040Z,95419.38
2022-12-01T14:04:10.610Z,95419.28
2022-12-01T14:06:50.931Z,95419.13
2022-12-01T14:09:31.713Z,95419.28
2022-12-01T14:12:34.569Z,95427.31
2022-12-01T14:15:05.424Z,95425.63
2022-12-01T14:17:37.277Z,95420.66
2022-12-01T14:20:14.879Z,95423.84
2022-12-01T14:22:45.317Z,95427.78
2022-12-01T14:25:24.216Z,95432.94
2022-12-01T14:27:57.878Z,95428.13
2022-12-01T14:30:44.421Z,95429.38
2022-12-01T14:33:39.242Z,95425.03
2022-12-01T14:36:10.165Z,95426.16
2022-12-01T14:38:37.001Z,95432.06
2022-12-01T14:41:09.570Z,95434.44
2022-12-01T14:43:56.905Z,95430.22
2022-12-01T14:46:26.661Z,95426.34
2022-12-01T14:48:55.100Z,95429.81
2022-12-01T14:51:30.358Z,95429.22
2022-12-01T14:53:58.503Z,95424.56
2022-12-01T14:56:26.590Z,95422.00
2022-12-01T14:58:57.816Z,95427.31
2022-12-01T15:01:30.517Z,95423.22
2022-12-01T15:03:59.360Z,95420.00
2022-12-01T15:06:28.721Z,95423.25
2022-12-01T15:09:33.990Z,95432.81
2022-12-01T15:12:09.216Z,95433.38
2022-12-01T15:14:47.002Z,95422.88
2022-12-01T15:17:32.278Z,95436.06
2022-12-01T15:19:59.328Z,95427.59
2022-12-01T15:22:33.502Z,95430.03
2022-12-01T15:25:15.249Z,95442.22
2022-12-01T15:27:43.584Z,95429.94
2022-12-01T15:30:15.554Z,95434.81
2022-12-01T15:32:45.784Z,95438.72
2022-12-01T15:35:23.806Z,95419.97
2022-12-01T15:37:52.404Z,95439.84
2022-12-01T15:43:23.511Z,95438.81
2022-12-01T15:46:01.468Z,95435.03
2022-12-01T15:48:32.384Z,95442.16
2022-12-01T15:51:12.108Z,95439.50
2022-12-01T15:53:45.317Z,95441.50
2022-12-01T15:56:12.292Z,95441.38
2022-12-01T15:58:48.520Z,95440.41
2022-12-01T16:01:20.189Z,95439.13
2022-12-01T16:03:57.169Z,95447.66
2022-12-01T16:06:28.076Z,95441.84
2022-12-01T16:08:59.566Z,95446.50
2022-12-01T16:11:27.149Z,95436.06
2022-12-01T16:14:06.948Z,95448.47
2022-12-01T16:16:47.106Z,95447.34
2022-12-01T16:19:16.822Z,95451.31
2022-12-01T16:22:14.672Z,95455.69
2022-12-01T16:24:53.574Z,95450.28
2022-12-01T16:27:31.016Z,95451.41
2022-12-01T16:30:01.628Z,95445.19
2022-12-01T16:32:33.769Z,95444.03
2022-12-01T16:35:00.584Z,95453.38
2022-12-01T16:37:28.003Z,95453.69
2022-12-01T16:39:54.680Z,95436.81
2022-12-01T16:42:22.118Z,95443.97
2022-12-01T16:44:50.764Z,95443.94
2022-12-01T16:47:25.423Z,95446.84
2022-12-01T16:49:52.731Z,95442.88
2022-12-01T16:52:43.765Z,95444.38
2022-12-01T16:55:35.300Z,95443.06
2022-12-01T16:58:01.829Z,95447.06
2022-12-01T17:00:29.680Z,95443.06
2022-12-01T17:02:57.350Z,95442.47
2022-12-01T17:05:24.423Z,95439.19
2022-12-01T17:07:51.722Z,95446.25
2022-12-01T17:10:18.610Z,95442.41
2022-12-01T17:12:45.189Z,95441.25
2022-12-01T17:15:12.120Z,95437.59
2022-12-01T17:17:39.072Z,95446.63
2022-12-01T17:20:06.910Z,95441.94
2022-12-01T17:22:33.692Z,95439.38
2022-12-01T17:25:02.317Z,95449.34
2022-12-01T17:27:29.674Z,95450.75
2022-12-01T17:29:56.298Z,95448.47
2022-12-01T17:32:22.892Z,95444.78
2022-12-01T17:34:49.670Z,95448.91
2022-12-01T17:37:20.921Z,95452.06
2022-12-01T17:39:49.239Z,95446.13
2022-12-01T17:42:16.173Z,95451.84
2022-12-01T17:44:42.737Z,95452.88
2022-12-01T17:47:09.321Z,95453.16
2022-12-01T17:49:36.560Z,95449.03
2022-12-01T17:52:04.421Z,95444.13
2022-12-01T17:54:31.562Z,95443.03
2022-12-01T17:56:58.150Z,95446.19
2022-12-01T17:59:24.841Z,95449.50
2022-12-01T18:01:51.648Z,95455.09
2022-12-01T18:04:18.380Z,95447.84
2022-12-01T18:06:47.984Z,95450.84
2022-12-01T18:09:19.044Z,95453.88
2022-12-01T18:11:45.585Z,95454.72
2022-12-01T18:14:12.133Z,95457.00
2022-12-01T18:16:38.939Z,95463.97
2022-12-01T18:19:05.742Z,95459.09
2022-12-01T18:21:34.951Z,95446.81
2022-12-01T18:24:03.489Z,95464.50
2022-12-01T18:26:32.254Z,95452.50
2022-12-01T18:29:01.461Z,95468.19
2022-12-01T18:31:29.864Z,95460.03
2022-12-01T18:34:04.409Z,95458.53
2022-12-01T18:36:33.572Z,95453.81
2022-12-01T18:39:01.465Z,95454.47
2022-12-01T18:41:28.702Z,95443.72
2022-12-01T18:43:55.236Z,95453.59
2022-12-01T18:46:22.641Z,95449.97
2022-12-01T18:49:00.621Z,95447.91
2022-12-01T18:51:27.956Z,95455.19
2022-12-01T18:53:56.395Z,95459.28
2022-12-01T18:56:23.299Z,95451.97
2022-12-01T18:58:57.655Z,95446.19
2022-12-01T19:01:32.163Z,95450.03
2022-12-01T19:03:59.884Z,95440.28
2022-12-01T19:06:27.468Z,95441.16
2022-12-01T19:08:55.110Z,95442.59
2022-12-01T19:11:22.330Z,95443.09
2022-12-01T19:13:48.932Z,95448.28
2022-12-01T19:16:18.009Z,95440.59
2022-12-01T19:18:45.314Z,95445.94
2022-12-01T19:21:16.285Z,95445.03
2022-12-01T19:23:45.005Z,95444.25
2022-12-01T19:26:22.156Z,95446.53
2022-12-01T19:28:49.660Z,95446.94
2022-12-01T19:31:19.272Z,95448.09
2022-12-01T19:33:46.439Z,95440.69
2022-12-01T19:36:15.808Z,95446.59
2022-12-01T19:38:42.576Z,95439.41
2022-12-01T19:41:09.420Z,95440.06
2022-12-01T19:43:37.600Z,95447.25
2022-12-01T19:46:13.272Z,95450.06
2022-12-01T19:48:40.022Z,95447.16
2022-12-01T19:51:07.050Z,95454.16
2022-12-01T19:53:34.258Z,95451.81
2022-12-01T19:56:03.204Z,95451.50
2022-12-01T19:58:33.231Z,95454.16
2022-12-01T20:01:11.662Z,95461.38
2022-12-01T20:03:38.389Z,95455.81
2022-12-01T20:06:13.685Z,95445.84
2022-12-01T20:08:40.492Z,95447.50
2022-12-01T20:11:07.534Z,95455.28
2022-12-01T20:13:35.969Z,95454.94
2022-12-01T20:16:14.404Z,95452.53
2022-12-01T20:18:42.029Z,95451.47
2022-12-01T20:21:17.117Z,95445.81
2022-12-01T20:23:49.667Z,95455.94
2022-12-01T20:26:18.191Z,95450.50
2022-12-01T20:28:49.792Z,95452.44
2022-12-01T20:31:24.359Z,95450.66
2022-12-01T20:33:53.580Z,95445.06
2022-12-01T20:36:21.685Z,95446.38
2022-12-01T20:38:48.655Z,95454.81
2022-12-01T20:41:15.857Z,95458.09
2022-12-01T20:43:42.669Z,95449.59
2022-12-01T20:46:09.405Z,95446.28
2022-12-01T20:48:36.434Z,95458.34
2022-12-01T20:51:05.268Z,95464.19
2022-12-01T20:53:32.299Z,95464.19
2022-12-01T20:56:03.914Z,95463.78
2022-12-01T20:58:34.605Z,95451.59
2022-12-01T21:01:13.550Z,95458.31
2022-12-01T21:03:42.518Z,95448.13
2022-12-01T21:06:11.207Z,95456.41
2022-12-01T21:08:39.095Z,95459.19
2022-12-01T21:11:45.820Z,95452.88
2022-12-01T21:14:19.917Z,95458.31
2022-12-01T21:16:49.259Z,95458.28
2022-12-01T21:19:28.701Z,95455.69
2022-12-01T21:21:55.183Z,95455.34
2022-12-01T21:24:33.180Z,95447.25
2022-12-01T21:27:08.714Z,95447.88
2022-12-01T21:29:41.353Z,95450.28
2022-12-01T21:32:19.781Z,95445.91
2022-12-01T21:34:47.774Z,95445.31
2022-12-01T21:37:21.096Z,95446.94
2022-12-01T21:39:51.023Z,95428.03
2022-12-01T21:42:25.233Z,95444.31
2022-12-01T21:44:52.502Z,95439.47
2022-12-01T21:47:22.220Z,95441.00
2022-12-01T21:49:58.059Z,95437.53
2022-12-01T21:52:30.274Z,95434.69
2022-12-01T21:55:17.106Z,95440.75
2022-12-01T21:57:50.993Z,95433.25
2022-12-01T22:00:26.840Z,95435.31
2022-12-01T22:03:01.649Z,95444.78
2022-12-01T22:05:35.332Z,95437.72
2022-12-01T22:08:18.042Z,95436.78
2022-12-01T22:10:54.248Z,95440.53
2022-12-01T22:14:07.478Z,95438.41
2022-12-01T22:16:36.877Z,95435.88
2022-12-01T22:19:38.229Z,95437.84
2022-12-01T22:22:25.813Z,95424.00
2022-12-01T22:25:01.805Z,95434.41
2022-12-01T22:27:31.340Z,95429.25
2022-12-01T22:30:00.994Z,95427.09
2022-12-01T22:32:35.628Z,95431.56
2022-12-01T22:35:21.174Z,95425.13
2022-12-01T22:37:50.437Z,95428.63
2022-12-01T22:40:37.628Z,95425.28
2022-12-01T22:43:22.577Z,95428.63
2022-12-01T22:45:50.767Z,95427.28
2022-12-01T22:48:44.700Z,95425.97
2022-12-01T22:51:14.195Z,95429.50
2022-12-01T22:53:41.831Z,95431.84
2022-12-01T22:56:31.151Z,95422.72
2022-12-01T22:58:58.001Z,95428.78
2022-12-01T23:01:32.898Z,95429.25
2022-12-01T23:04:33.405Z,95419.06
2022-12-01T23:07:08.876Z,95411.13
2022-12-01T23:09:45.051Z,95416.03
2022-12-01T23:12:11.675Z,95414.50
2022-12-01T23:14:50.314Z,95414.59
2022-12-01T23:17:21.664Z,95418.66
2022-12-01T23:19:51.335Z,95405.66
2022-12-01T23:22:18.444Z,95417.44
2022-12-01T23:24:46.132Z,95419.72
2022-12-01T23:27:13.541Z,95409.78
2022-12-01T23:29:40.098Z,95415.63
2022-12-01T23:32:06.859Z,95415.63
2022-12-01T23:34:33.926Z,95420.38
2022-12-01T23:37:00.976Z,95415.72
2022-12-01T23:39:35.713Z,95407.59
2022-12-01T23:42:03.004Z,95400.00
2022-12-01T23:44:38.381Z,95401.94
2022-12-01T23:47:17.214Z,95404.41
2022-12-01T23:49:45.162Z,95400.59
2022-12-01T23:52:16.698Z,95401.72
2022-12-01T23:54:43.384Z,95390.75
2022-12-01T23:57:24.519Z,95389.59
2022-12-01T23:59:58.242Z,95388.13
